sensor_id;sensor_type;location;lat;lon;timestamp;pressure;altitude;pressure_sealevel;temperature;humidity
70314;BME280;57725;47.526;18.986;2023-04-26T00:00:09;99106.41;;;13.79;93.99
70314;BME280;57725;47.526;18.986;2023-04-26T00:02:37;99111.69;;;13.79;93.96
70314;BME280;57725;47.526;18.986;2023-04-26T00:05:05;99113.56;;;13.77;94.14
70314;BME280;57725;47.526;18.986;2023-04-26T00:07:31;99122.19;;;13.79;94.24
70314;BME280;57725;47.526;18.986;2023-04-26T00:09:56;99116.19;;;13.77;94.32
70314;BME280;57725;47.526;18.986;2023-04-26T00:12:22;99113.56;;;13.77;93.90
70314;BME280;57725;47.526;18.986;2023-04-26T00:14:48;99118.91;;;13.75;94.13
70314;BME280;57725;47.526;18.986;2023-04-26T00:17:13;99118.06;;;13.75;93.99
70314;BME280;57725;47.526;18.986;2023-04-26T00:19:38;99115.44;;;13.75;93.99
70314;BME280;57725;47.526;18.986;2023-04-26T00:22:07;99115.53;;;13.73;94.19
70314;BME280;57725;47.526;18.986;2023-04-26T00:24:35;99118.41;;;13.70;93.98
70314;BME280;57725;47.526;18.986;2023-04-26T00:27:00;99124.50;;;13.71;94.00
70314;BME280;57725;47.526;18.986;2023-04-26T00:29:29;99136.78;;;13.70;93.93
70314;BME280;57725;47.526;18.986;2023-04-26T00:31:59;99133.22;;;13.71;94.15
70314;BME280;57725;47.526;18.986;2023-04-26T00:34:32;99143.81;;;13.70;94.02
70314;BME280;57725;47.526;18.986;2023-04-26T00:37:01;99142.13;;;13.69;94.00
70314;BME280;57725;47.526;18.986;2023-04-26T00:39:31;99147.38;;;13.69;94.23
70314;BME280;57725;47.526;18.986;2023-04-26T00:41:59;99150.03;;;13.69;93.96
70314;BME280;57725;47.526;18.986;2023-04-26T00:44:24;99150.13;;;13.67;94.12
70314;BME280;57725;47.526;18.986;2023-04-26T00:46:52;99156.22;;;13.68;93.96
70314;BME280;57725;47.526;18.986;2023-04-26T00:49:20;99155.47;;;13.66;93.78
70314;BME280;57725;47.526;18.986;2023-04-26T00:51:47;99151.06;;;13.66;94.10
70314;BME280;57725;47.526;18.986;2023-04-26T00:54:13;99163.34;;;13.66;94.11
70314;BME280;57725;47.526;18.986;2023-04-26T00:56:40;99158.09;;;13.66;93.86
70314;BME280;57725;47.526;18.986;2023-04-26T00:59:06;99161.66;;;13.65;93.82
70314;BME280;57725;47.526;18.986;2023-04-26T01:01:31;99161.75;;;13.63;94.02
70314;BME280;57725;47.526;18.986;2023-04-26T01:03:57;99158.19;;;13.64;93.70
70314;BME280;57725;47.526;18.986;2023-04-26T01:06:26;99156.72;;;13.60;94.05
70314;BME280;57725;47.526;18.986;2023-04-26T01:08:55;99157.44;;;13.62;93.71
70314;BME280;57725;47.526;18.986;2023-04-26T01:11:27;99165.31;;;13.62;93.82
70314;BME280;57725;47.526;18.986;2023-04-26T01:13:52;99160.06;;;13.62;94.02
70314;BME280;57725;47.526;18.986;2023-04-26T01:16:18;99165.47;;;13.61;93.46
70314;BME280;57725;47.526;18.986;2023-04-26T01:18:50;99169.88;;;13.60;93.87
70314;BME280;57725;47.526;18.986;2023-04-26T01:21:20;99169.13;;;13.58;93.81
70314;BME280;57725;47.526;18.986;2023-04-26T01:23:48;99174.38;;;13.58;93.84
70314;BME280;57725;47.526;18.986;2023-04-26T01:26:14;99178.88;;;13.56;94.05
70314;BME280;57725;47.526;18.986;2023-04-26T01:28:42;99180.56;;;13.57;93.96
70314;BME280;57725;47.526;18.986;2023-04-26T01:31:07;99181.41;;;13.58;93.72
70314;BME280;57725;47.526;18.986;2023-04-26T01:33:36;99184.97;;;13.57;93.75
70314;BME280;57725;47.526;18.986;2023-04-26T01:36:01;99182.34;;;13.57;93.71
70314;BME280;57725;47.526;18.986;2023-04-26T01:38:27;99180.75;;;13.54;93.77
70314;BME280;57725;47.526;18.986;2023-04-26T01:40:52;99189.47;;;13.55;93.87
70314;BME280;57725;47.526;18.986;2023-04-26T01:43:20;99199.13;;;13.54;93.88
70314;BME280;57725;47.526;18.986;2023-04-26T01:45:47;99200.91;;;13.54;93.70
70314;BME280;57725;47.526;18.986;2023-04-26T01:48:12;99193.97;;;13.53;93.80
70314;BME280;57725;47.526;18.986;2023-04-26T01:50:38;99198.50;;;13.51;93.80
70314;BME280;57725;47.526;18.986;2023-04-26T01:53:05;99197.78;;;13.49;94.09
70314;BME280;57725;47.526;18.986;2023-04-26T01:55:32;99203.75;;;13.51;93.64
70314;BME280;57725;47.526;18.986;2023-04-26T01:57:58;99205.53;;;13.50;93.85
70314;BME280;57725;47.526;18.986;2023-04-26T02:00:23;99209.84;;;13.51;93.61
70314;BME280;57725;47.526;18.986;2023-04-26T02:02:53;99204.81;;;13.48;93.87
70314;BME280;57725;47.526;18.986;2023-04-26T02:05:21;99207.44;;;13.48;93.86
70314;BME280;57725;47.526;18.986;2023-04-26T02:07:49;99213.63;;;13.47;93.79
70314;BME280;57725;47.526;18.986;2023-04-26T02:10:15;99210.16;;;13.47;93.81
70314;BME280;57725;47.526;18.986;2023-04-26T02:12:44;99211.94;;;13.46;93.70
70314;BME280;57725;47.526;18.986;2023-04-26T02:15:09;99212.88;;;13.45;93.68
70314;BME280;57725;47.526;18.986;2023-04-26T02:17:35;99216.44;;;13.44;93.47
70314;BME280;57725;47.526;18.986;2023-04-26T02:20:02;99208.66;;;13.43;93.76
70314;BME280;57725;47.526;18.986;2023-04-26T02:22:31;99213.81;;;13.44;93.84
70314;BME280;57725;47.526;18.986;2023-04-26T02:24:56;99212.97;;;13.44;93.63
70314;BME280;57725;47.526;18.986;2023-04-26T02:27:22;99212.13;;;13.43;93.63
70314;BME280;57725;47.526;18.986;2023-04-26T02:29:52;99213.06;;;13.42;93.72
70314;BME280;57725;47.526;18.986;2023-04-26T02:32:19;99216.63;;;13.41;93.59
70314;BME280;57725;47.526;18.986;2023-04-26T02:34:47;99221.88;;;13.41;93.54
70314;BME280;57725;47.526;18.986;2023-04-26T02:37:16;99222.81;;;13.40;93.32
70314;BME280;57725;47.526;18.986;2023-04-26T02:39:41;99228.91;;;13.40;93.40
70314;BME280;57725;47.526;18.986;2023-04-26T02:42:10;99234.25;;;13.39;93.43
70314;BME280;57725;47.526;18.986;2023-04-26T02:44:35;99221.13;;;13.39;93.51
70314;BME280;57725;47.526;18.986;2023-04-26T02:47:02;99228.06;;;13.40;93.45
70314;BME280;57725;47.526;18.986;2023-04-26T02:49:30;99233.31;;;13.40;93.45
70314;BME280;57725;47.526;18.986;2023-04-26T02:51:55;99228.28;;;13.37;93.32
70314;BME280;57725;47.526;18.986;2023-04-26T02:54:25;99228.38;;;13.35;93.30
70314;BME280;57725;47.526;18.986;2023-04-26T02:56:51;99237.19;;;13.34;93.36
70314;BME280;57725;47.526;18.986;2023-04-26T02:59:16;99235.41;;;13.35;93.44
70314;BME280;57725;47.526;18.986;2023-04-26T03:01:42;99229.31;;;13.34;93.51
70314;BME280;57725;47.526;18.986;2023-04-26T03:04:07;99230.25;;;13.33;93.41
70314;BME280;57725;47.526;18.986;2023-04-26T03:06:33;99232.88;;;13.33;93.48
70314;BME280;57725;47.526;18.986;2023-04-26T03:09:01;99226.78;;;13.33;93.40
70314;BME280;57725;47.526;18.986;2023-04-26T03:11:26;99232.13;;;13.31;93.42
70314;BME280;57725;47.526;18.986;2023-04-26T03:13:52;99233.91;;;13.31;93.21
70314;BME280;57725;47.526;18.986;2023-04-26T03:16:22;99239.16;;;13.31;93.46
70314;BME280;57725;47.526;18.986;2023-04-26T03:18:48;99240.94;;;13.30;93.40
70314;BME280;57725;47.526;18.986;2023-04-26T03:21:13;99247.13;;;13.29;93.37
70314;BME280;57725;47.526;18.986;2023-04-26T03:23:41;99261.19;;;13.28;93.42
70314;BME280;57725;47.526;18.986;2023-04-26T03:26:06;99262.97;;;13.28;93.24
70314;BME280;57725;47.526;18.986;2023-04-26T03:28:32;99262.25;;;13.26;93.37
70314;BME280;57725;47.526;18.986;2023-04-26T03:30:57;99271.91;;;13.25;93.44
70314;BME280;57725;47.526;18.986;2023-04-26T03:33:22;99278.00;;;13.26;93.43
70314;BME280;57725;47.526;18.986;2023-04-26T03:35:48;99274.53;;;13.25;93.38
70314;BME280;57725;47.526;18.986;2023-04-26T03:38:13;99278.94;;;13.25;93.37
70314;BME280;57725;47.526;18.986;2023-04-26T03:40:41;99275.38;;;13.26;93.29
70314;BME280;57725;47.526;18.986;2023-04-26T03:43:07;99285.13;;;13.24;93.51
70314;BME280;57725;47.526;18.986;2023-04-26T03:45:32;99286.81;;;13.25;93.20
70314;BME280;57725;47.526;18.986;2023-04-26T03:47:57;99300.03;;;13.23;93.50
70314;BME280;57725;47.526;18.986;2023-04-26T03:50:27;99292.16;;;13.23;93.22
70314;BME280;57725;47.526;18.986;2023-04-26T03:52:52;99290.47;;;13.22;93.17
70314;BME280;57725;47.526;18.986;2023-04-26T03:55:18;99300.13;;;13.22;93.33
70314;BME280;57725;47.526;18.986;2023-04-26T03:57:43;99303.69;;;13.21;93.30
70314;BME280;57725;47.526;18.986;2023-04-26T04:00:09;99300.22;;;13.20;93.52
70314;BME280;57725;47.526;18.986;2023-04-26T04:02:39;99310.72;;;13.20;93.18
70314;BME280;57725;47.526;18.986;2023-04-26T04:05:05;99308.09;;;13.20;93.08
70314;BME280;57725;47.526;18.986;2023-04-26T04:07:31;99308.19;;;13.19;92.97
70314;BME280;57725;47.526;18.986;2023-04-26T04:09:58;99315.22;;;13.18;93.47
70314;BME280;57725;47.526;18.986;2023-04-26T04:12:24;99314.38;;;13.18;93.07
70314;BME280;57725;47.526;18.986;2023-04-26T04:14:53;99307.44;;;13.17;93.19
70314;BME280;57725;47.526;18.986;2023-04-26T04:17:18;99308.38;;;13.16;93.26
70314;BME280;57725;47.526;18.986;2023-04-26T04:19:43;99308.50;;;13.14;93.22
70314;BME280;57725;47.526;18.986;2023-04-26T04:22:11;99315.50;;;13.14;93.30
70314;BME280;57725;47.526;18.986;2023-04-26T04:24:37;99325.09;;;13.15;93.62
70314;BME280;57725;47.526;18.986;2023-04-26T04:27:05;99328.59;;;13.14;93.53
70314;BME280;57725;47.526;18.986;2023-04-26T04:29:30;99328.59;;;13.14;93.36
70314;BME280;57725;47.526;18.986;2023-04-26T04:32:00;99332.25;;;13.11;93.50
70314;BME280;57725;47.526;18.986;2023-04-26T04:34:27;99334.88;;;13.11;93.36
70314;BME280;57725;47.526;18.986;2023-04-26T04:36:57;99344.53;;;13.11;93.51
70314;BME280;57725;47.526;18.986;2023-04-26T04:39:22;99346.31;;;13.10;93.51
70314;BME280;57725;47.526;18.986;2023-04-26T04:41:48;99347.16;;;13.11;93.68
70314;BME280;57725;47.526;18.986;2023-04-26T04:44:16;99343.78;;;13.09;93.41
70314;BME280;57725;47.526;18.986;2023-04-26T04:46:42;99343.03;;;13.06;93.51
70314;BME280;57725;47.526;18.986;2023-04-26T04:49:08;99349.13;;;13.07;93.51
70314;BME280;57725;47.526;18.986;2023-04-26T04:51:33;99357.94;;;13.06;93.46
70314;BME280;57725;47.526;18.986;2023-04-26T04:54:08;99366.66;;;13.06;93.61
70314;BME280;57725;47.526;18.986;2023-04-26T04:56:33;99372.81;;;13.05;93.45
70314;BME280;57725;47.526;18.986;2023-04-26T04:59:02;99378.06;;;13.05;93.28
70314;BME280;57725;47.526;18.986;2023-04-26T05:01:29;99373.75;;;13.04;93.73
70314;BME280;57725;47.526;18.986;2023-04-26T05:03:55;99378.28;;;13.02;93.54
70314;BME280;57725;47.526;18.986;2023-04-26T05:06:25;99385.22;;;13.03;93.46
70314;BME280;57725;47.526;18.986;2023-04-26T05:08:52;99378.28;;;13.02;93.34
70314;BME280;57725;47.526;18.986;2023-04-26T05:11:17;99383.53;;;13.02;93.51
70314;BME280;57725;47.526;18.986;2023-04-26T05:13:46;99384.47;;;13.01;93.40
70314;BME280;57725;47.526;18.986;2023-04-26T05:16:12;99384.47;;;13.01;93.82
70314;BME280;57725;47.526;18.986;2023-04-26T05:18:37;99393.28;;;13.00;93.45
70314;BME280;57725;47.526;18.986;2023-04-26T05:21:03;99397.66;;;13.00;93.65
70314;BME280;57725;47.526;18.986;2023-04-26T05:23:28;99396.81;;;12.99;93.55
70314;BME280;57725;47.526;18.986;2023-04-26T05:26:00;99399.44;;;12.99;93.45
70314;BME280;57725;47.526;18.986;2023-04-26T05:28:28;99401.31;;;12.97;93.39
70314;BME280;57725;47.526;18.986;2023-04-26T05:30:54;99397.75;;;12.98;93.45
70314;BME280;57725;47.526;18.986;2023-04-26T05:33:22;99400.56;;;12.95;93.59
70314;BME280;57725;47.526;18.986;2023-04-26T05:35:50;99392.69;;;12.95;93.74
70314;BME280;57725;47.526;18.986;2023-04-26T05:38:16;99407.59;;;12.95;93.74
70314;BME280;57725;47.526;18.986;2023-04-26T05:40:42;99401.41;;;12.96;93.56
70314;BME280;57725;47.526;18.986;2023-04-26T05:43:07;99408.44;;;12.95;93.49
70314;BME280;57725;47.526;18.986;2023-04-26T05:45:36;99397.09;;;12.95;93.66
70314;BME280;57725;47.526;18.986;2023-04-26T05:48:07;99395.41;;;12.94;93.58
70314;BME280;57725;47.526;18.986;2023-04-26T05:50:37;99400.66;;;12.94;93.53
70314;BME280;57725;47.526;18.986;2023-04-26T05:53:03;99391.94;;;12.93;93.65
70314;BME280;57725;47.526;18.986;2023-04-26T05:55:28;99394.66;;;12.92;93.67
70314;BME280;57725;47.526;18.986;2023-04-26T05:57:53;99408.59;;;12.92;93.65
70314;BME280;57725;47.526;18.986;2023-04-26T06:00:19;99399.91;;;12.92;93.64
70314;BME280;57725;47.526;18.986;2023-04-26T06:02:47;99395.59;;;12.91;93.94
70314;BME280;57725;47.526;18.986;2023-04-26T06:05:15;99402.63;;;12.90;93.60
70314;BME280;57725;47.526;18.986;2023-04-26T06:07:41;99407.88;;;12.90;93.73
70314;BME280;57725;47.526;18.986;2023-04-26T06:10:11;99402.72;;;12.89;93.65
70314;BME280;57725;47.526;18.986;2023-04-26T06:12:37;99414.91;;;12.90;93.98
70314;BME280;57725;47.526;18.986;2023-04-26T06:15:08;99424.56;;;12.89;93.75
70314;BME280;57725;47.526;18.986;2023-04-26T06:17:34;99417.53;;;12.90;93.81
70314;BME280;57725;47.526;18.986;2023-04-26T06:20:02;99421.84;;;12.91;94.02
70314;BME280;57725;47.526;18.986;2023-04-26T06:22:32;99424.47;;;12.91;94.19
70314;BME280;57725;47.526;18.986;2023-04-26T06:24:58;99428.03;;;12.90;94.41
70314;BME280;57725;47.526;18.986;2023-04-26T06:27:23;99426.25;;;12.90;94.40
70314;BME280;57725;47.526;18.986;2023-04-26T06:29:48;99424.47;;;12.91;95.05
70314;BME280;57725;47.526;18.986;2023-04-26T06:32:14;99429.72;;;12.91;95.56
70314;BME280;57725;47.526;18.986;2023-04-26T06:34:40;99428.66;;;12.93;95.91
70314;BME280;57725;47.526;18.986;2023-04-26T06:37:05;99425.94;;;12.95;96.40
70314;BME280;57725;47.526;18.986;2023-04-26T06:39:31;99421.56;;;12.95;96.68
70314;BME280;57725;47.526;18.986;2023-04-26T06:41:56;99428.50;;;12.96;97.16
70314;BME280;57725;47.526;18.986;2023-04-26T06:44:24;99440.59;;;12.99;97.22
70314;BME280;57725;47.526;18.986;2023-04-26T06:46:53;99430.94;;;12.99;97.65
70314;BME280;57725;47.526;18.986;2023-04-26T06:49:21;99437.13;;;12.98;97.48
70314;BME280;57725;47.526;18.986;2023-04-26T06:51:47;99428.31;;;12.99;97.41
70314;BME280;57725;47.526;18.986;2023-04-26T06:54:12;99429.16;;;13.00;97.42
70314;BME280;57725;47.526;18.986;2023-04-26T06:56:38;99422.13;;;13.00;97.23
70314;BME280;57725;47.526;18.986;2023-04-26T06:59:05;99440.50;;;13.00;97.28
70314;BME280;57725;47.526;18.986;2023-04-26T07:01:32;99442.19;;;13.01;97.12
70314;BME280;57725;47.526;18.986;2023-04-26T07:04:04;99425.50;;;13.02;97.11
70314;BME280;57725;47.526;18.986;2023-04-26T07:06:32;99434.31;;;13.01;97.26
70314;BME280;57725;47.526;18.986;2023-04-26T07:08:58;99438.72;;;13.01;97.03
70314;BME280;57725;47.526;18.986;2023-04-26T07:11:27;99435.44;;;12.97;96.79
70314;BME280;57725;47.526;18.986;2023-04-26T07:13:55;99436.34;;;12.96;96.41
70314;BME280;57725;47.526;18.986;2023-04-26T07:16:21;99439.91;;;12.95;96.78
70314;BME280;57725;47.526;18.986;2023-04-26T07:18:49;99437.38;;;12.94;96.41
70314;BME280;57725;47.526;18.986;2023-04-26T07:21:15;99436.53;;;12.93;96.43
70314;BME280;57725;47.526;18.986;2023-04-26T07:23:40;99445.25;;;12.94;96.37
70314;BME280;57725;47.526;18.986;2023-04-26T07:26:06;99443.47;;;12.94;96.20
70314;BME280;57725;47.526;18.986;2023-04-26T07:28:32;99441.69;;;12.95;96.41
70314;BME280;57725;47.526;18.986;2023-04-26T07:30:58;99451.25;;;12.96;96.43
70314;BME280;57725;47.526;18.986;2023-04-26T07:33:27;99451.25;;;12.96;96.31
70314;BME280;57725;47.526;18.986;2023-04-26T07:35:57;99455.56;;;12.97;96.40
70314;BME280;57725;47.526;18.986;2023-04-26T07:38:26;99455.56;;;12.97;95.92
70314;BME280;57725;47.526;18.986;2023-04-26T07:40:54;99463.44;;;12.97;95.82
70314;BME280;57725;47.526;18.986;2023-04-26T07:43:21;99466.06;;;12.97;95.79
70314;BME280;57725;47.526;18.986;2023-04-26T07:45:52;99463.44;;;12.97;95.89
70314;BME280;57725;47.526;18.986;2023-04-26T07:48:18;99473.09;;;12.96;95.66
70314;BME280;57725;47.526;18.986;2023-04-26T07:50:43;99481.91;;;12.95;95.29
70314;BME280;57725;47.526;18.986;2023-04-26T07:53:13;99473.94;;;12.97;95.74
70314;BME280;57725;47.526;18.986;2023-04-26T07:55:41;99490.53;;;12.97;95.61
70314;BME280;57725;47.526;18.986;2023-04-26T07:58:10;99478.34;;;12.96;95.69
70314;BME280;57725;47.526;18.986;2023-04-26T08:00:41;99477.41;;;12.97;95.47
70314;BME280;57725;47.526;18.986;2023-04-26T08:03:07;99467.75;;;12.98;95.73
70314;BME280;57725;47.526;18.986;2023-04-26T08:05:32;99484.34;;;12.98;95.62
70314;BME280;57725;47.526;18.986;2023-04-26T08:07:58;99486.13;;;12.98;95.33
70314;BME280;57725;47.526;18.986;2023-04-26T08:10:27;99493.16;;;12.97;95.56
70314;BME280;57725;47.526;18.986;2023-04-26T08:12:53;99491.38;;;12.98;95.41
70314;BME280;57725;47.526;18.986;2023-04-26T08:15:18;99493.06;;;12.99;95.36
70314;BME280;57725;47.526;18.986;2023-04-26T08:17:44;99507.88;;;13.00;95.45
70314;BME280;57725;47.526;18.986;2023-04-26T08:20:10;99515.75;;;13.00;95.64
70314;BME280;57725;47.526;18.986;2023-04-26T08:22:35;99507.78;;;13.01;95.50
70314;BME280;57725;47.526;18.986;2023-04-26T08:25:01;99516.50;;;13.02;95.47
70314;BME280;57725;47.526;18.986;2023-04-26T08:27:31;99502.53;;;13.01;95.42
70314;BME280;57725;47.526;18.986;2023-04-26T08:29:58;99514.72;;;13.02;95.77
70314;BME280;57725;47.526;18.986;2023-04-26T08:32:23;99504.31;;;13.01;95.69
70314;BME280;57725;47.526;18.986;2023-04-26T08:34:49;99512.09;;;13.02;95.61
70314;BME280;57725;47.526;18.986;2023-04-26T08:37:17;99508.63;;;13.02;95.17
70314;BME280;57725;47.526;18.986;2023-04-26T08:39:42;99519.22;;;13.00;94.90
70314;BME280;57725;47.526;18.986;2023-04-26T08:42:18;99521.75;;;13.02;95.06
70314;BME280;57725;47.526;18.986;2023-04-26T08:44:46;99514.72;;;13.02;95.15
70314;BME280;57725;47.526;18.986;2023-04-26T08:47:42;99518.94;;;13.05;95.19
70314;BME280;57725;47.526;18.986;2023-04-26T08:50:15;99530.28;;;13.05;95.25
70314;BME280;57725;47.526;18.986;2023-04-26T08:52:42;99522.50;;;13.04;94.73
70314;BME280;57725;47.526;18.986;2023-04-26T08:55:10;99532.06;;;13.05;94.88
70314;BME280;57725;47.526;18.986;2023-04-26T08:57:39;99531.88;;;13.08;95.07
70314;BME280;57725;47.526;18.986;2023-04-26T09:00:06;99532.91;;;13.05;94.62
70314;BME280;57725;47.526;18.986;2023-04-26T09:02:39;99518.09;;;13.04;94.41
70314;BME280;57725;47.526;18.986;2023-04-26T09:05:05;99521.56;;;13.05;94.26
70314;BME280;57725;47.526;18.986;2023-04-26T09:10:04;99535.44;;;13.07;94.37
70314;BME280;57725;47.526;18.986;2023-04-26T09:12:30;99512.75;;;13.06;94.04
70314;BME280;57725;47.526;18.986;2023-04-26T09:14:56;99516.97;;;13.09;93.85
70314;BME280;57725;47.526;18.986;2023-04-26T09:19:56;99516.91;;;13.10;93.60
70314;BME280;57725;47.526;18.986;2023-04-26T09:22:32;99510.72;;;13.11;93.85
70314;BME280;57725;47.526;18.986;2023-04-26T09:24:59;99509.78;;;13.12;93.76
70314;BME280;57725;47.526;18.986;2023-04-26T09:27:38;99514.94;;;13.14;93.50
70314;BME280;57725;47.526;18.986;2023-04-26T09:30:05;99516.69;;;13.15;93.66
70314;BME280;57725;47.526;18.986;2023-04-26T09:35:38;99526.13;;;13.17;93.47
70314;BME280;57725;47.526;18.986;2023-04-26T09:40:34;99520.88;;;13.17;93.24
70314;BME280;57725;47.526;18.986;2023-04-26T09:43:13;99524.16;;;13.21;93.38
70314;BME280;57725;47.526;18.986;2023-04-26T09:48:28;99531.88;;;13.24;93.19
70314;BME280;57725;47.526;18.986;2023-04-26T09:51:08;99525.69;;;13.25;93.12
70314;BME280;57725;47.526;18.986;2023-04-26T09:53:41;99521.28;;;13.25;93.19
70314;BME280;57725;47.526;18.986;2023-04-26T09:56:17;99514.13;;;13.27;93.08
70314;BME280;57725;47.526;18.986;2023-04-26T10:01:09;99521.94;;;13.29;92.93
70314;BME280;57725;47.526;18.986;2023-04-26T10:03:36;99516.59;;;13.30;92.94
70314;BME280;57725;47.526;18.986;2023-04-26T10:06:03;99512.19;;;13.31;92.87
70314;BME280;57725;47.526;18.986;2023-04-26T10:08:31;99512.09;;;13.32;92.66
70314;BME280;57725;47.526;18.986;2023-04-26T10:10:57;99509.38;;;13.34;92.70
70314;BME280;57725;47.526;18.986;2023-04-26T10:13:24;99508.47;;;13.35;92.68
70314;BME280;57725;47.526;18.986;2023-04-26T10:15:53;99504.97;;;13.34;92.69
70314;BME280;57725;47.526;18.986;2023-04-26T10:18:20;99511.72;;;13.38;92.62
70314;BME280;57725;47.526;18.986;2023-04-26T10:20:54;99522.13;;;13.40;92.88
70314;BME280;57725;47.526;18.986;2023-04-26T10:23:23;99522.13;;;13.40;92.69
70314;BME280;57725;47.526;18.986;2023-04-26T10:25:50;99508.91;;;13.41;92.42
70314;BME280;57725;47.526;18.986;2023-04-26T10:28:17;99512.38;;;13.42;92.18
70314;BME280;57725;47.526;18.986;2023-04-26T10:31:00;99510.59;;;13.43;92.33
70314;BME280;57725;47.526;18.986;2023-04-26T10:33:26;99512.22;;;13.45;92.34
70314;BME280;57725;47.526;18.986;2023-04-26T10:38:32;99515.50;;;13.49;92.38
70314;BME280;57725;47.526;18.986;2023-04-26T10:41:32;99525.88;;;13.50;92.24
70314;BME280;57725;47.526;18.986;2023-04-26T10:44:00;99534.53;;;13.52;92.33
70314;BME280;57725;47.526;18.986;2023-04-26T10:46:49;99520.47;;;13.53;92.43
70314;BME280;57725;47.526;18.986;2023-04-26T10:49:19;99514.28;;;13.54;92.35
70314;BME280;57725;47.526;18.986;2023-04-26T10:52:16;99521.13;;;13.57;92.25
70314;BME280;57725;47.526;18.986;2023-04-26T10:57:14;99535.03;;;13.59;92.28
70314;BME280;57725;47.526;18.986;2023-04-26T11:08:17;99524.13;;;13.65;92.53
70314;BME280;57725;47.526;18.986;2023-04-26T11:11:04;99508.28;;;13.66;92.45
70314;BME280;57725;47.526;18.986;2023-04-26T11:13:30;99515.22;;;13.67;92.47
70314;BME280;57725;47.526;18.986;2023-04-26T11:16:01;99528.28;;;13.69;92.54
70314;BME280;57725;47.526;18.986;2023-04-26T11:18:31;99523.88;;;13.69;92.44
70314;BME280;57725;47.526;18.986;2023-04-26T11:20:59;99529.88;;;13.71;92.34
70314;BME280;57725;47.526;18.986;2023-04-26T11:23:28;99528.94;;;13.72;92.49
70314;BME280;57725;47.526;18.986;2023-04-26T11:25:58;99525.34;;;13.73;92.33
70314;BME280;57725;47.526;18.986;2023-04-26T11:28:24;99514.00;;;13.73;92.40
70314;BME280;57725;47.526;18.986;2023-04-26T11:30:50;99525.25;;;13.75;92.40
70314;BME280;57725;47.526;18.986;2023-04-26T11:33:19;99520.66;;;13.78;92.45
70314;BME280;57725;47.526;18.986;2023-04-26T11:35:50;99541.69;;;13.78;92.28
70314;BME280;57725;47.526;18.986;2023-04-26T11:38:17;99540.75;;;13.80;92.43
70314;BME280;57725;47.526;18.986;2023-04-26T11:40:52;99532.88;;;13.80;92.54
70314;BME280;57725;47.526;18.986;2023-04-26T11:43:19;99527.53;;;13.81;92.36
70314;BME280;57725;47.526;18.986;2023-04-26T11:45:46;99528.38;;;13.82;92.43
70314;BME280;57725;47.526;18.986;2023-04-26T11:48:14;99545.75;;;13.84;92.57
70314;BME280;57725;47.526;18.986;2023-04-26T11:50:40;99537.84;;;13.84;92.36
70314;BME280;57725;47.526;18.986;2023-04-26T11:53:08;99529.00;;;13.85;92.32
70314;BME280;57725;47.526;18.986;2023-04-26T11:55:36;99529.84;;;13.86;92.42
70314;BME280;57725;47.526;18.986;2023-04-26T11:58:13;99542.06;;;13.87;92.25
70314;BME280;57725;47.526;18.986;2023-04-26T12:00:58;99536.72;;;13.88;92.38
70314;BME280;57725;47.526;18.986;2023-04-26T12:03:31;99524.41;;;13.89;92.50
70314;BME280;57725;47.526;18.986;2023-04-26T12:05:59;99527.88;;;13.89;92.06
70314;BME280;57725;47.526;18.986;2023-04-26T12:08:26;99538.31;;;13.91;92.21
70314;BME280;57725;47.526;18.986;2023-04-26T12:10:52;99527.88;;;13.89;90.08
70314;BME280;57725;47.526;18.986;2023-04-26T12:13:19;99538.22;;;13.92;88.49
70314;BME280;57725;47.526;18.986;2023-04-26T12:15:45;99538.41;;;13.89;84.81
70314;BME280;57725;47.526;18.986;2023-04-26T12:18:15;99536.88;;;13.85;81.61
70314;BME280;57725;47.526;18.986;2023-04-26T12:20:43;99539.63;;;13.84;82.62
70314;BME280;57725;47.526;18.986;2023-04-26T12:23:15;99549.09;;;13.86;84.45
70314;BME280;57725;47.526;18.986;2023-04-26T12:25:56;99541.97;;;13.88;85.75
70314;BME280;57725;47.526;18.986;2023-04-26T12:28:24;99539.25;;;13.90;86.36
70314;BME280;57725;47.526;18.986;2023-04-26T12:30:50;99539.06;;;13.93;86.67
70314;BME280;57725;47.526;18.986;2023-04-26T12:33:15;99536.34;;;13.94;86.52
70314;BME280;57725;47.526;18.986;2023-04-26T12:35:45;99534.44;;;13.96;86.66
70314;BME280;57725;47.526;18.986;2023-04-26T12:38:11;99538.88;;;13.96;87.40
70314;BME280;57725;47.526;18.986;2023-04-26T12:40:42;99542.22;;;13.98;87.68
70314;BME280;57725;47.526;18.986;2023-04-26T12:43:07;99543.94;;;13.99;88.13
70314;BME280;57725;47.526;18.986;2023-04-26T12:45:33;99546.56;;;13.99;88.13
70314;BME280;57725;47.526;18.986;2023-04-26T12:48:01;99556.97;;;14.00;88.63
70314;BME280;57725;47.526;18.986;2023-04-26T12:50:31;99549.94;;;14.01;89.13
70314;BME280;57725;47.526;18.986;2023-04-26T12:53:01;99560.34;;;14.02;88.89
70314;BME280;57725;47.526;18.986;2023-04-26T12:55:27;99554.16;;;14.03;88.99
70314;BME280;57725;47.526;18.986;2023-04-26T12:57:52;99558.50;;;14.04;89.22
70314;BME280;57725;47.526;18.986;2023-04-26T13:00:20;99558.41;;;14.06;89.78
70314;BME280;57725;47.526;18.986;2023-04-26T13:02:48;99556.63;;;14.06;89.74
70314;BME280;57725;47.526;18.986;2023-04-26T13:05:15;99556.63;;;14.06;89.44
70314;BME280;57725;47.526;18.986;2023-04-26T13:07:43;99558.31;;;14.07;89.75
70314;BME280;57725;47.526;18.986;2023-04-26T13:10:09;99552.19;;;14.07;89.84
70314;BME280;57725;47.526;18.986;2023-04-26T13:12:37;99550.28;;;14.09;89.98
70314;BME280;57725;47.526;18.986;2023-04-26T13:15:05;99570.38;;;14.10;89.90
70314;BME280;57725;47.526;18.986;2023-04-26T13:17:34;99544.50;;;14.04;90.04
70314;BME280;57725;47.526;18.986;2023-04-26T13:19:59;99566.91;;;14.09;90.31
70314;BME280;57725;47.526;18.986;2023-04-26T13:22:28;99573.94;;;14.09;90.28